Informes de METARS cercanos

 

LEAL - Alicante/El Alte, Spain
Distance from station: SSE 60km
Actualización: 04/08/2020 10:00
Parcialmente nuboso
Parcialmente nuboso
 Viento del ESE
Viento: ESE 17 km/h
Temperatura: 28°C
Heat Index: 30°C
Rocío: 22°C
Humedad: 70%
Barómetro: 1014 hPa
Clouds: Parcialmente nuboso
Visibility: 10 km
Cloud details: Parcialmente nuboso 823 m
2020/08/04 08:00 LEAL 040800Z 12009KT 080V170 9999 SCT027 28/22 Q1014 NOSIG
LEVC - Valencia (civ/Mi, Spain
Distance from station: NNE 84km
Actualización: 04/08/2020 10:00
Muy nuboso
Muy nuboso
 Viento del NNO
Viento: NNO 7 km/h
Temperatura: 28°C
Heat Index: 28°C
Rocío: 16°C
Humedad: 48%
Barómetro: 1014 hPa
Clouds: Muy nuboso
Visibility: 10 km
Cloud details: Muy nuboso 1372 m
2020/08/04 08:00 LEVC 040800Z 34004KT 310V020 9999 BKN045 28/16 Q1014 NOSIG
 
LEAB - Albacete (civ/Mi, Spain
Distance from station: O 95km
Actualización: 04/08/2020 10:00
Muy nuboso
Muy nuboso
 Viento del SE
Viento: SE 7 km/h
Temperatura: 23°C
Rocío: 19°C
Humedad: 78%
Barómetro: 1017 hPa
Clouds: Muy nuboso
Visibility: 10 km
Cloud details: Muy nuboso 518 m
2020/08/04 08:00 LEAB 040800Z 14004KT 040V200 9999 BKN017 23/19 Q1017 NOSIG
LERI - Alcantarilla(Sp-, Spain
Distance from station: SSO 100km
Actualización: 04/08/2020 10:00
Muy nuboso
Muy nuboso
 Viento del ESE
Viento: ESE 9 km/h
Temperatura: 28°C
Heat Index: 30°C
Rocío: 21°C
Humedad: 66%
Barómetro: 1014 hPa
Clouds: Muy nuboso
Visibility: 10 km
Cloud details: Few Clouds 640 m
Muy nuboso 1829 m
2020/08/04 08:00 LERI 040800Z 12005KT 080V170 9999 FEW021 BKN060 28/21 Q1014 NOSIG
 
LELC - San Javier(Mil/C, Spain
Distance from station: S 113km
Actualización: 04/08/2020 10:00
Parcialmente nuboso
Parcialmente nuboso
 Viento del ESE
Viento: ESE 13 km/h
Temperatura: 28°C
Heat Index: 30°C
Rocío: 22°C
Humedad: 70%
Barómetro: 1014 hPa
Clouds: Parcialmente nuboso
Visibility: 10 km
Cloud details: Few Clouds 610 m
Parcialmente nuboso 914 m
2020/08/04 08:00 LELC 040800Z 12007KT 080V160 9999 FEW020 SCT030 28/22 Q1014 NOSIG
LEIB - Ibiza/Es Codola, Spain
Distance from station: E 186km
Actualización: 04/08/2020 10:00
Parcialmente nuboso
Parcialmente nuboso
 Viento del SE
Viento: SE 11 km/h
Temperatura: 26°C
Rocío: 21°C
Humedad: 74%
Barómetro: 1014 hPa
Clouds: Parcialmente nuboso
Visibility: 10 km
Cloud details: Few Clouds 610 m
Parcialmente nuboso 701 m
2020/08/04 08:00 LEIB 040800Z 13006KT 100V170 9999 FEW020TCU SCT023 26/21 Q1014 TEMPO SHRA
 
LEAM - Almeria Airport, Spain
Distance from station: SSO 256km
Actualización: 04/08/2020 10:00
Few Clouds
Few Clouds
 Viento del ENE
Viento: ENE 19 km/h
Temperatura: 30°C
Heat Index: 34°C
Rocío: 23°C
Humedad: 66%
Barómetro: 1013 hPa
Clouds: Few Clouds
Visibility: 10 km
Cloud details: Few Clouds 610 m
2020/08/04 08:00 LEAM 040800Z 07010KT 030V120 9999 FEW020 30/23 Q1013
LEMD - Madrid/Barajas, Spain
Distance from station: NO 305km
Actualización: 04/08/2020 10:00
Despejado
Despejado
 Viento del NE
Viento: NE 13 km/h
Temperatura: 22°C
Rocío: 9°C
Humedad: 44%
Barómetro: 1018 hPa
Resumen: Despejado
Visibility: greater than 10 km
2020/08/04 08:00 LEMD 040800Z 05007KT 010V110 CAVOK 22/09 Q1018 NOSIG
 
LEPA - Palma De Mallorc, Spain
Distance from station: ENE 313km
Actualización: 04/08/2020 10:00
Muy nuboso
Muy nuboso
 Viento del SSE
Viento: SSE 9 km/h
Temperatura: 26°C
Rocío: 16°C
Humedad: 54%
Barómetro: 1015 hPa
Clouds: Muy nuboso
Visibility: 10 km
Cloud details: Few Clouds 914 m
Muy nuboso 1829 m
2020/08/04 08:00 LEPA 040800Z 15005KT 090V210 9999 FEW030 BKN060 26/16 Q1015 NOSIG